createdAt,value
2023-03-06T00:00:24.185Z,45.1
2023-03-06T00:01:37.476Z,45.2
2023-03-06T00:02:40.227Z,45.2
2023-03-06T00:03:54.095Z,45.2
2023-03-06T00:05:06.956Z,45.2
2023-03-06T00:06:20.482Z,45.1
2023-03-06T00:07:23.216Z,45.2
2023-03-06T00:08:37.001Z,45.2
2023-03-06T00:09:49.683Z,45.2
2023-03-06T00:10:54.948Z,45.2
2023-03-06T00:12:07.641Z,45.1
2023-03-06T00:13:21.001Z,45.1
2023-03-06T00:14:23.859Z,45.2
2023-03-06T00:15:37.489Z,45.2
2023-03-06T00:16:50.182Z,45.1
2023-03-06T00:17:53.961Z,45.2
2023-03-06T00:19:06.695Z,45.2
2023-03-06T00:20:20.754Z,45.1
2023-03-06T00:21:23.905Z,45.2
2023-03-06T00:22:37.482Z,45.1
2023-03-06T00:23:50.493Z,45.1
2023-03-06T00:25:33.516Z,45.1
2023-03-06T00:26:06.400Z,45.2
2023-03-06T00:27:29.069Z,45.1
2023-03-06T00:28:53.027Z,45.1
2023-03-06T00:29:36.541Z,45.1
2023-03-06T00:30:49.418Z,45.1
2023-03-06T00:31:53.494Z,45.0
2023-03-06T00:33:15.751Z,44.9
2023-03-06T00:34:19.487Z,44.9
2023-03-06T00:35:22.265Z,44.8
2023-03-06T00:36:35.980Z,44.8
2023-03-06T00:37:48.637Z,44.8
2023-03-06T00:39:01.975Z,44.8
2023-03-06T00:40:04.684Z,44.8
2023-03-06T00:41:17.964Z,44.8
2023-03-06T00:42:30.649Z,44.8
2023-03-06T00:43:33.959Z,44.8
2023-03-06T00:44:46.706Z,44.8
2023-03-06T00:46:00.023Z,44.9
2023-03-06T00:47:12.782Z,44.8
2023-03-06T00:48:16.484Z,44.9
2023-03-06T00:49:29.180Z,44.9
2023-03-06T00:50:42.502Z,44.9
2023-03-06T00:51:45.235Z,44.9
2023-03-06T00:52:58.992Z,44.9
2023-03-06T00:54:11.694Z,44.9
2023-03-06T00:55:15.600Z,44.9
2023-03-06T00:56:28.461Z,45.0
2023-03-06T00:57:41.990Z,45.0
2023-03-06T00:58:44.733Z,45.0
2023-03-06T00:59:58.519Z,45.0
2023-03-06T01:01:11.258Z,45.0
2023-03-06T01:02:25.569Z,45.0
2023-03-06T01:03:28.355Z,45.0
2023-03-06T01:04:42.000Z,45.0
2023-03-06T01:05:44.743Z,45.0
2023-03-06T01:06:58.469Z,45.0
2023-03-06T01:08:11.181Z,45.0
2023-03-06T01:09:24.487Z,45.0
2023-03-06T01:10:27.282Z,45.0
2023-03-06T01:11:41.022Z,45.0
2023-03-06T01:12:53.733Z,45.0
2023-03-06T01:13:57.475Z,45.0
2023-03-06T01:15:10.174Z,45.0
2023-03-06T01:16:24.155Z,45.0
2023-03-06T01:17:27.029Z,45.0
2023-03-06T01:18:40.497Z,45.0
2023-03-06T01:19:53.196Z,45.0
2023-03-06T01:20:57.004Z,45.0
2023-03-06T01:22:09.711Z,45.0
2023-03-06T01:23:23.494Z,45.0
2023-03-06T01:24:26.238Z,45.0
2023-03-06T01:25:40.000Z,45.0
2023-03-06T01:26:52.747Z,45.0
2023-03-06T01:28:06.470Z,45.0
2023-03-06T01:29:09.223Z,45.0
2023-03-06T01:30:22.993Z,45.1
2023-03-06T01:31:35.745Z,45.1
2023-03-06T01:32:39.523Z,45.1
2023-03-06T01:33:52.468Z,45.0
2023-03-06T01:35:05.986Z,45.0
2023-03-06T01:36:08.767Z,45.0
2023-03-06T01:37:22.507Z,45.0
2023-03-06T01:38:35.221Z,45.1
2023-03-06T01:39:39.019Z,45.0
2023-03-06T01:40:51.765Z,45.0
2023-03-06T01:42:05.522Z,45.1
2023-03-06T01:43:08.309Z,45.1
2023-03-06T01:44:21.997Z,45.0
2023-03-06T01:45:34.775Z,45.0
2023-03-06T01:46:48.511Z,45.1
2023-03-06T01:47:51.296Z,45.0
2023-03-06T01:49:04.981Z,45.1
2023-03-06T01:50:17.708Z,45.1
2023-03-06T01:51:21.523Z,45.1
2023-03-06T01:52:34.258Z,45.1
2023-03-06T01:53:47.980Z,45.1
2023-03-06T01:54:50.743Z,45.1
2023-03-06T01:56:04.499Z,45.1
2023-03-06T01:57:17.232Z,45.1
2023-03-06T01:58:20.984Z,45.1
2023-03-06T01:59:33.707Z,45.1
2023-03-06T02:00:47.022Z,45.0
2023-03-06T02:01:59.840Z,45.1
2023-03-06T02:03:03.491Z,45.0
2023-03-06T02:04:16.232Z,45.1
2023-03-06T02:05:29.970Z,45.0
2023-03-06T02:06:32.729Z,45.0
2023-03-06T02:07:46.472Z,45.0
2023-03-06T02:08:59.182Z,45.1
2023-03-06T02:10:02.994Z,45.1
2023-03-06T02:11:15.761Z,45.0
2023-03-06T02:12:29.517Z,45.0
2023-03-06T02:13:32.302Z,45.0
2023-03-06T02:14:45.992Z,45.0
2023-03-06T02:15:58.737Z,45.0
2023-03-06T02:17:12.526Z,45.0
2023-03-06T02:18:15.356Z,45.0
2023-03-06T02:19:29.005Z,45.0
2023-03-06T02:20:41.754Z,45.0
2023-03-06T02:21:45.530Z,45.0
2023-03-06T02:23:12.904Z,45.1
2023-03-06T02:24:05.739Z,45.1
2023-03-06T02:25:19.421Z,45.0
2023-03-06T02:26:32.167Z,45.0
2023-03-06T02:27:35.958Z,45.0
2023-03-06T02:28:48.696Z,45.0
2023-03-06T02:30:02.413Z,45.0
2023-03-06T02:31:05.239Z,44.9
2023-03-06T02:32:38.470Z,45.0
2023-03-06T02:33:31.484Z,45.0
2023-03-06T02:34:34.255Z,45.0
2023-03-06T02:35:48.084Z,45.0
2023-03-06T02:37:00.901Z,45.0
2023-03-06T02:38:14.447Z,44.9
2023-03-06T02:39:17.207Z,44.9
2023-03-06T02:40:30.954Z,44.9
2023-03-06T02:41:43.697Z,45.0
2023-03-06T02:42:47.414Z,44.9
2023-03-06T02:44:00.159Z,44.9
2023-03-06T02:45:13.956Z,44.9
2023-03-06T02:46:16.744Z,44.9
2023-03-06T02:47:30.441Z,44.9
2023-03-06T02:48:43.201Z,44.9
2023-03-06T02:49:56.923Z,44.9
2023-03-06T02:50:59.691Z,44.9
2023-03-06T02:52:13.443Z,44.9
2023-03-06T02:53:26.187Z,44.9
2023-03-06T02:54:29.923Z,44.9
2023-03-06T02:55:42.662Z,44.9
2023-03-06T02:56:56.415Z,44.9
2023-03-06T02:57:59.179Z,44.9
2023-03-06T02:59:12.933Z,44.9
2023-03-06T03:00:25.724Z,44.9
2023-03-06T03:01:29.506Z,44.9
2023-03-06T03:02:42.316Z,44.9
2023-03-06T03:03:55.952Z,44.9
2023-03-06T03:04:58.723Z,44.9
2023-03-06T03:06:12.434Z,44.9
2023-03-06T03:07:25.170Z,44.9
2023-03-06T03:08:38.949Z,44.9
2023-03-06T03:09:41.755Z,44.8
2023-03-06T03:10:55.459Z,44.9
2023-03-06T03:12:08.229Z,44.9
2023-03-06T03:13:11.951Z,44.9
2023-03-06T03:14:24.726Z,44.8
2023-03-06T03:15:38.524Z,44.9
2023-03-06T03:16:41.474Z,44.9
2023-03-06T03:17:54.933Z,44.9
2023-03-06T03:19:07.662Z,44.9
2023-03-06T03:20:11.489Z,44.9
2023-03-06T03:21:24.225Z,44.9
2023-03-06T03:22:37.954Z,44.9
2023-03-06T03:23:40.782Z,44.9
2023-03-06T03:24:54.545Z,44.9
2023-03-06T03:26:07.382Z,44.9
2023-03-06T03:27:20.934Z,44.9
2023-03-06T03:28:23.718Z,44.9
2023-03-06T03:29:37.424Z,44.9
2023-03-06T03:30:50.196Z,44.9
2023-03-06T03:31:53.956Z,44.9
2023-03-06T03:33:06.711Z,44.9
2023-03-06T03:34:20.483Z,44.8
2023-03-06T03:35:32.856Z,44.8
2023-03-06T03:36:36.487Z,44.8
2023-03-06T03:37:49.241Z,44.8
2023-03-06T03:39:02.943Z,44.8
2023-03-06T03:40:05.719Z,44.8
2023-03-06T03:41:19.483Z,44.8
2023-03-06T03:42:32.252Z,44.8
2023-03-06T03:43:35.964Z,44.7
2023-03-06T03:44:48.732Z,44.8
2023-03-06T03:46:02.447Z,44.8
2023-03-06T03:47:05.252Z,44.8
2023-03-06T03:48:18.948Z,44.8
2023-03-06T03:49:31.755Z,44.7
2023-03-06T03:50:35.451Z,44.8
2023-03-06T03:51:48.185Z,44.7
2023-03-06T03:53:02.016Z,44.8
2023-03-06T03:54:04.788Z,44.8
2023-03-06T03:55:18.432Z,44.8
2023-03-06T03:56:31.211Z,44.8
2023-03-06T03:57:34.988Z,44.8
2023-03-06T03:58:47.718Z,44.7
2023-03-06T04:00:01.482Z,44.7
2023-03-06T04:01:04.279Z,44.7
2023-03-06T04:02:17.970Z,44.8
2023-03-06T04:03:30.857Z,44.7
2023-03-06T04:04:44.495Z,44.7
2023-03-06T04:05:47.427Z,44.7
2023-03-06T04:07:00.954Z,44.8
2023-03-06T04:08:13.733Z,44.8
2023-03-06T04:09:17.462Z,44.7
2023-03-06T04:10:30.210Z,44.7
2023-03-06T04:11:43.960Z,44.7
2023-03-06T04:12:46.733Z,44.7
2023-03-06T04:14:00.438Z,44.7
2023-03-06T04:15:13.184Z,44.7
2023-03-06T04:16:16.991Z,44.8
2023-03-06T04:17:29.819Z,44.7
2023-03-06T04:18:43.445Z,44.7
2023-03-06T04:19:46.224Z,44.7
2023-03-06T04:20:59.973Z,44.7
2023-03-06T04:22:12.712Z,44.7
2023-03-06T04:23:26.508Z,44.7
2023-03-06T04:24:29.278Z,44.7
2023-03-06T04:25:42.950Z,44.7
2023-03-06T04:26:55.789Z,44.7
2023-03-06T04:27:59.500Z,44.7
2023-03-06T04:29:12.277Z,44.7
2023-03-06T04:30:25.953Z,44.7
2023-03-06T04:31:28.859Z,44.7
2023-03-06T04:32:42.543Z,44.7
2023-03-06T04:33:55.412Z,44.7
2023-03-06T04:34:58.978Z,44.7
2023-03-06T04:36:11.726Z,44.6
2023-03-06T04:37:25.502Z,44.7
2023-03-06T04:38:28.305Z,44.7
2023-03-06T04:39:41.952Z,44.7
2023-03-06T04:40:54.707Z,44.7
2023-03-06T04:42:08.473Z,44.7
2023-03-06T04:43:11.268Z,44.7
2023-03-06T04:44:24.998Z,44.7
2023-03-06T04:45:37.814Z,44.7
2023-03-06T04:46:41.485Z,44.7
2023-03-06T04:47:54.246Z,44.7
2023-03-06T04:49:07.991Z,44.6
2023-03-06T04:50:10.852Z,44.7
2023-03-06T04:51:24.450Z,44.6
2023-03-06T04:52:37.197Z,44.7
2023-03-06T04:53:40.973Z,44.6
2023-03-06T04:54:53.749Z,44.6
2023-03-06T04:56:07.491Z,44.6
2023-03-06T04:57:10.307Z,44.6
2023-03-06T04:58:33.485Z,44.7
2023-03-06T04:59:38.850Z,44.7
2023-03-06T05:00:43.009Z,44.6
2023-03-06T05:01:56.008Z,44.7
2023-03-06T05:03:09.499Z,44.6
2023-03-06T05:04:12.327Z,44.6
2023-03-06T05:05:26.016Z,44.6
2023-03-06T05:06:38.772Z,44.6
2023-03-06T05:07:42.550Z,44.6
2023-03-06T05:08:55.306Z,44.6
2023-03-06T05:10:08.970Z,44.7
2023-03-06T05:11:11.757Z,44.7
2023-03-06T05:12:25.461Z,44.6
2023-03-06T05:13:58.058Z,44.7
2023-03-06T05:15:01.523Z,44.7
2023-03-06T05:16:04.622Z,44.8
2023-03-06T05:17:08.535Z,44.8
2023-03-06T05:18:11.315Z,44.7
2023-03-06T05:19:24.999Z,44.7
2023-03-06T05:20:37.725Z,44.8
2023-03-06T05:21:51.515Z,44.7
2023-03-06T05:22:54.288Z,44.7
2023-03-06T05:24:08.010Z,44.8
2023-03-06T05:25:20.738Z,44.8
2023-03-06T05:26:24.485Z,44.8
2023-03-06T05:27:37.232Z,44.9
2023-03-06T05:28:51.097Z,45.0
2023-03-06T05:29:53.879Z,45.0
2023-03-06T05:31:17.523Z,45.0
2023-03-06T05:32:20.555Z,45.1
2023-03-06T05:33:24.466Z,45.0
2023-03-06T05:34:37.212Z,45.1
2023-03-06T05:35:51.020Z,45.1
2023-03-06T05:36:53.852Z,45.1
2023-03-06T05:38:08.275Z,45.0
2023-03-06T05:39:22.393Z,45.1
2023-03-06T05:40:26.242Z,45.1
2023-03-06T05:42:08.736Z,45.1
2023-03-06T05:43:01.992Z,45.2
2023-03-06T05:43:54.790Z,45.1
2023-03-06T05:45:08.610Z,45.2
2023-03-06T05:46:21.397Z,45.3
2023-03-06T05:47:35.029Z,45.2
2023-03-06T05:48:37.814Z,45.1
2023-03-06T05:49:51.494Z,45.3
2023-03-06T05:50:54.536Z,45.4
2023-03-06T05:52:08.032Z,45.4
2023-03-06T05:53:20.787Z,45.3
2023-03-06T05:54:24.501Z,45.3
2023-03-06T05:55:37.246Z,45.3
2023-03-06T05:56:50.998Z,45.3
2023-03-06T05:57:53.787Z,45.3
2023-03-06T05:59:07.514Z,45.4
2023-03-06T06:00:20.271Z,45.4
2023-03-06T06:01:24.010Z,45.4
2023-03-06T06:02:36.784Z,45.8
2023-03-06T06:03:50.599Z,45.8
2023-03-06T06:04:53.421Z,45.7
2023-03-06T06:06:07.011Z,45.4
2023-03-06T06:07:19.667Z,45.0
2023-03-06T06:08:33.494Z,44.5
2023-03-06T06:09:36.132Z,43.9
2023-03-06T06:10:52.191Z,43.5
2023-03-06T06:11:55.879Z,43.1
2023-03-06T06:13:09.103Z,42.5
2023-03-06T06:14:21.622Z,41.2
2023-03-06T06:15:25.018Z,40.3
2023-03-06T06:16:37.592Z,39.2
2023-03-06T06:17:50.985Z,38.8
2023-03-06T06:18:53.801Z,37.8
2023-03-06T06:20:07.105Z,37.0
2023-03-06T06:21:19.591Z,35.8
2023-03-06T06:22:33.051Z,34.8
2023-03-06T06:23:35.652Z,34.2
2023-03-06T06:24:49.010Z,34.2
2023-03-06T06:26:01.534Z,34.2
2023-03-06T06:27:05.012Z,33.5
2023-03-06T06:28:17.521Z,33.2
2023-03-06T06:29:31.130Z,33.0
2023-03-06T06:30:33.792Z,32.7
2023-03-06T06:31:47.006Z,33.0
2023-03-06T06:32:59.510Z,33.1
2023-03-06T06:34:13.307Z,33.2
2023-03-06T06:38:50.819Z,33.3
2023-03-06T06:39:53.318Z,33.5
2023-03-06T06:41:35.971Z,33.7
2023-03-06T06:43:28.649Z,33.8
2023-03-06T06:44:42.492Z,33.9
2023-03-06T06:45:45.013Z,33.9
2023-03-06T06:47:23.113Z,33.9
2023-03-06T06:48:07.113Z,34.0
2023-03-06T06:49:19.740Z,34.0
2023-03-06T06:50:33.025Z,34.0
2023-03-06T06:51:35.608Z,34.0
2023-03-06T06:52:49.114Z,34.1
2023-03-06T06:54:01.600Z,34.0
2023-03-06T06:55:05.015Z,34.0
2023-03-06T06:56:17.428Z,34.1
2023-03-06T06:57:30.488Z,34.1
2023-03-06T06:58:43.010Z,34.1
2023-03-06T06:59:46.501Z,34.1
2023-03-06T07:00:58.948Z,34.1
2023-03-06T07:02:11.991Z,34.2
2023-03-06T07:03:14.462Z,34.2
2023-03-06T07:04:27.485Z,34.2
2023-03-06T07:05:39.905Z,34.3
2023-03-06T07:06:53.514Z,34.4
2023-03-06T07:07:56.062Z,34.4
2023-03-06T07:09:09.522Z,34.4
2023-03-06T07:10:21.935Z,34.5
2023-03-06T07:11:25.506Z,34.5
2023-03-06T07:12:37.969Z,34.5
2023-03-06T07:13:51.009Z,34.5
2023-03-06T07:14:53.715Z,34.5
2023-03-06T07:16:07.052Z,34.6
2023-03-06T07:17:19.537Z,34.6
2023-03-06T07:18:32.520Z,34.6
2023-03-06T07:19:34.971Z,34.6
2023-03-06T07:20:48.029Z,34.6
2023-03-06T07:22:00.473Z,34.6
2023-03-06T07:23:13.535Z,34.6
2023-03-06T07:24:16.008Z,34.7
2023-03-06T07:25:29.027Z,34.7
2023-03-06T07:26:41.389Z,34.7
2023-03-06T07:27:51.079Z,34.8
2023-03-06T07:28:55.663Z,34.8
2023-03-06T07:30:09.038Z,34.8
2023-03-06T07:31:21.441Z,34.8
2023-03-06T07:32:24.500Z,34.9
2023-03-06T07:33:36.924Z,34.9
2023-03-06T07:34:50.023Z,35.0
2023-03-06T07:36:02.441Z,35.1
2023-03-06T07:37:05.541Z,35.2
2023-03-06T07:38:17.905Z,35.2
2023-03-06T07:39:31.023Z,35.2
2023-03-06T07:40:43.392Z,35.2
2023-03-06T07:41:46.532Z,35.2
2023-03-06T07:43:09.410Z,35.3
2023-03-06T07:44:12.012Z,35.3
2023-03-06T07:45:14.472Z,35.3
2023-03-06T07:46:27.537Z,35.3
2023-03-06T07:47:39.891Z,35.3
2023-03-06T07:48:53.048Z,35.3
2023-03-06T07:50:05.118Z,35.3
2023-03-06T07:51:08.556Z,35.3
2023-03-06T07:52:20.897Z,35.4
2023-03-06T07:53:34.043Z,35.4
2023-03-06T07:54:36.509Z,35.3
2023-03-06T07:55:49.543Z,35.3
2023-03-06T07:57:02.048Z,35.4
2023-03-06T07:58:05.550Z,35.3
2023-03-06T07:59:17.910Z,35.3
2023-03-06T08:00:31.560Z,35.4
2023-03-06T08:01:33.992Z,35.4
2023-03-06T08:02:47.056Z,35.3
2023-03-06T08:03:59.643Z,35.4
2023-03-06T08:05:13.048Z,35.4
2023-03-06T08:06:15.465Z,35.4
2023-03-06T08:07:28.545Z,35.5
2023-03-06T08:08:40.879Z,35.5
2023-03-06T08:09:54.052Z,35.5
2023-03-06T08:10:56.459Z,35.5
2023-03-06T08:12:09.517Z,35.4
2023-03-06T08:13:21.930Z,35.6
2023-03-06T08:14:44.571Z,35.6
2023-03-06T08:15:37.169Z,35.7
2023-03-06T08:16:50.541Z,35.7
2023-03-06T08:17:53.190Z,35.8
2023-03-06T08:19:06.562Z,35.7
2023-03-06T08:20:18.876Z,35.7
2023-03-06T08:21:33.342Z,35.6
2023-03-06T08:22:45.233Z,35.6
2023-03-06T08:23:48.629Z,35.7
2023-03-06T08:25:00.974Z,35.7
2023-03-06T08:26:05.320Z,35.7
2023-03-06T08:27:17.470Z,35.6
2023-03-06T08:28:30.531Z,35.7
2023-03-06T08:29:32.825Z,35.6
2023-03-06T08:30:45.524Z,35.6
2023-03-06T08:31:57.663Z,35.7
2023-03-06T08:33:20.546Z,35.7
2023-03-06T08:34:13.465Z,35.7
2023-03-06T08:35:26.585Z,35.8
2023-03-06T08:36:38.891Z,35.8
2023-03-06T08:37:52.044Z,35.8
2023-03-06T08:38:54.477Z,35.8
2023-03-06T08:40:07.552Z,35.9
2023-03-06T08:41:20.390Z,35.8
2023-03-06T08:42:24.034Z,35.7
2023-03-06T08:43:45.900Z,35.8
2023-03-06T08:44:49.062Z,35.9
2023-03-06T08:46:01.411Z,35.8
2023-03-06T08:47:44.057Z,35.8
2023-03-06T08:48:16.813Z,35.8
2023-03-06T08:49:29.145Z,35.8
2023-03-06T08:50:42.068Z,35.8
2023-03-06T08:51:44.462Z,35.7
2023-03-06T08:52:57.545Z,35.8
2023-03-06T08:54:09.826Z,35.8
2023-03-06T08:55:15.020Z,35.7
2023-03-06T08:56:27.485Z,35.7
2023-03-06T08:57:40.535Z,35.7
2023-03-06T08:58:42.939Z,35.7
2023-03-06T08:59:56.098Z,35.7
2023-03-06T09:01:08.391Z,35.7
2023-03-06T09:02:21.565Z,35.7
2023-03-06T09:03:23.993Z,35.7
2023-03-06T09:04:37.041Z,35.8
2023-03-06T09:05:49.329Z,35.7
2023-03-06T09:07:22.047Z,35.7
2023-03-06T09:08:04.655Z,35.7
2023-03-06T09:09:16.993Z,35.7
2023-03-06T09:10:30.086Z,35.6
2023-03-06T09:11:32.570Z,35.6
2023-03-06T09:12:50.877Z,35.7
2023-03-06T09:13:54.468Z,35.7
2023-03-06T09:15:07.549Z,35.7
2023-03-06T09:16:19.818Z,35.7
2023-03-06T09:17:23.100Z,35.6
2023-03-06T09:18:35.569Z,35.6
2023-03-06T09:19:48.620Z,35.6
2023-03-06T09:21:00.925Z,35.7
2023-03-06T09:22:04.087Z,35.7
2023-03-06T09:23:16.416Z,35.7
2023-03-06T09:24:29.563Z,35.7
2023-03-06T09:25:31.991Z,35.7
2023-03-06T09:26:46.852Z,35.7
2023-03-06T09:28:11.000Z,35.8
2023-03-06T09:29:05.555Z,35.7
2023-03-06T09:30:37.384Z,35.7
2023-03-06T09:31:30.581Z,35.7
2023-03-06T09:32:32.957Z,35.7
2023-03-06T09:33:46.096Z,35.7
2023-03-06T09:34:58.422Z,35.7
2023-03-06T09:36:11.583Z,35.7
2023-03-06T09:37:16.268Z,35.7
2023-03-06T09:38:29.605Z,35.7
2023-03-06T09:39:31.976Z,35.7
2023-03-06T09:40:45.078Z,35.7
2023-03-06T09:43:12.908Z,35.7
2023-03-06T09:44:15.270Z,35.7
2023-03-06T09:45:28.549Z,35.7
2023-03-06T09:46:31.054Z,35.8
2023-03-06T09:47:44.558Z,35.7
2023-03-06T09:49:06.751Z,35.8
2023-03-06T09:50:10.090Z,35.8
2023-03-06T09:51:12.464Z,35.8
2023-03-06T09:52:25.666Z,35.8
2023-03-06T09:53:37.946Z,35.8
2023-03-06T09:54:41.075Z,35.8
2023-03-06T09:55:53.440Z,35.8
2023-03-06T09:57:06.651Z,35.8
2023-03-06T09:58:18.925Z,35.8
2023-03-06T09:59:22.098Z,35.9
2023-03-06T10:00:34.370Z,35.8
2023-03-06T10:01:47.546Z,35.8
2023-03-06T10:02:50.038Z,35.9
2023-03-06T10:04:03.085Z,35.8
2023-03-06T10:05:15.580Z,35.9
2023-03-06T10:06:28.586Z,35.8
2023-03-06T10:07:30.936Z,35.8
2023-03-06T10:08:44.104Z,35.8
2023-03-06T10:09:56.440Z,35.8
2023-03-06T10:10:59.577Z,35.8
2023-03-06T10:12:11.954Z,35.8
2023-03-06T10:13:25.074Z,35.9
2023-03-06T10:14:37.357Z,35.8
2023-03-06T10:15:40.594Z,35.8
2023-03-06T10:16:52.989Z,35.8
2023-03-06T10:18:06.081Z,35.8
2023-03-06T10:19:08.480Z,35.8
2023-03-06T10:20:21.714Z,35.8
2023-03-06T10:21:34.054Z,35.8
2023-03-06T10:23:00.033Z,35.8
2023-03-06T10:23:53.421Z,35.9
2023-03-06T10:25:06.564Z,35.8
2023-03-06T10:26:08.938Z,35.7
2023-03-06T10:27:22.092Z,35.7
2023-03-06T10:28:53.824Z,35.8
2023-03-06T10:30:00.101Z,35.7
2023-03-06T10:31:04.669Z,35.7
2023-03-06T10:31:58.140Z,35.7
2023-03-06T10:33:11.088Z,35.7
2023-03-06T10:34:23.299Z,35.6
2023-03-06T10:35:36.588Z,35.6
2023-03-06T10:36:39.075Z,35.5
2023-03-06T10:37:52.095Z,35.5
2023-03-06T10:39:04.312Z,35.5
2023-03-06T10:40:08.507Z,35.5
2023-03-06T10:41:20.872Z,35.5
2023-03-06T10:42:34.106Z,35.5
2023-03-06T10:43:36.720Z,35.4
2023-03-06T10:44:59.598Z,35.3
2023-03-06T10:46:21.616Z,35.3
2023-03-06T10:47:15.095Z,35.2
2023-03-06T10:48:17.498Z,35.2
2023-03-06T10:49:30.602Z,35.1
2023-03-06T10:50:42.821Z,35.1
2023-03-06T10:51:46.065Z,35.1
2023-03-06T10:52:58.280Z,35.0
2023-03-06T10:54:11.078Z,35.0
2023-03-06T10:55:23.316Z,35.0
2023-03-06T10:56:26.601Z,35.0
2023-03-06T10:57:38.923Z,35.0
2023-03-06T10:58:52.084Z,35.0
2023-03-06T11:00:04.304Z,35.0
2023-03-06T11:01:07.578Z,35.0
2023-03-06T11:02:19.923Z,35.0
2023-03-06T11:03:33.096Z,35.0
2023-03-06T11:04:35.514Z,35.0
2023-03-06T11:05:48.613Z,35.1
2023-03-06T11:07:00.841Z,35.0
2023-03-06T11:08:14.110Z,35.0
2023-03-06T11:09:16.514Z,35.0
2023-03-06T11:10:39.586Z,35.0
2023-03-06T11:11:41.945Z,34.9
2023-03-06T11:12:45.093Z,34.9
2023-03-06T11:14:07.234Z,34.8
2023-03-06T11:15:10.121Z,34.7
2023-03-06T11:16:25.460Z,34.7
2023-03-06T11:17:29.128Z,34.7
2023-03-06T11:18:41.382Z,34.6
2023-03-06T11:19:44.590Z,34.5
2023-03-06T11:21:16.352Z,34.4
2023-03-06T11:22:09.602Z,34.4
2023-03-06T11:23:21.738Z,34.3
2023-03-06T11:24:24.602Z,34.2
2023-03-06T11:25:36.818Z,34.1
2023-03-06T11:26:51.000Z,34.2
2023-03-06T11:27:53.494Z,34.2
2023-03-06T11:29:06.678Z,34.1
2023-03-06T11:30:18.955Z,34.2
2023-03-06T11:31:32.196Z,34.2
2023-03-06T11:32:54.081Z,34.1
2023-03-06T11:33:47.604Z,34.2
2023-03-06T11:34:59.837Z,34.0
2023-03-06T11:36:03.094Z,34.1
2023-03-06T11:37:16.278Z,34.0
2023-03-06T11:38:29.611Z,33.9
2023-03-06T11:39:31.892Z,33.9
2023-03-06T11:40:45.067Z,33.8
2023-03-06T11:42:06.571Z,33.8
2023-03-06T11:43:29.119Z,33.8
2023-03-06T11:44:11.612Z,33.7
2023-03-06T11:45:23.763Z,33.7
2023-03-06T11:46:36.627Z,33.6
2023-03-06T11:47:49.872Z,33.5
2023-03-06T11:48:53.116Z,33.5
2023-03-06T11:50:05.275Z,33.4
2023-03-06T11:51:18.168Z,33.5
2023-03-06T11:52:20.461Z,33.4
2023-03-06T11:53:33.639Z,33.3
2023-03-06T11:54:45.799Z,33.3
2023-03-06T11:55:58.583Z,33.3
2023-03-06T11:57:00.864Z,33.3
2023-03-06T11:58:14.130Z,33.3
2023-03-06T11:59:26.212Z,33.2
2023-03-06T12:00:29.140Z,33.3
2023-03-06T12:01:41.313Z,33.2
2023-03-06T12:02:54.116Z,33.2
2023-03-06T12:04:06.252Z,33.1
2023-03-06T12:05:09.224Z,33.1
2023-03-06T12:06:21.400Z,33.1
2023-03-06T12:07:34.162Z,33.1
2023-03-06T12:08:46.323Z,33.1
2023-03-06T12:09:49.154Z,33.0
2023-03-06T12:11:01.283Z,33.0
2023-03-06T12:12:14.113Z,33.0
2023-03-06T12:13:16.342Z,33.0
2023-03-06T12:14:29.424Z,32.9
2023-03-06T12:16:01.127Z,32.9
2023-03-06T12:16:54.156Z,32.9
2023-03-06T12:17:56.426Z,32.9
2023-03-06T12:19:09.132Z,32.9
2023-03-06T12:20:21.243Z,32.9
2023-03-06T12:21:34.111Z,32.9
2023-03-06T12:22:36.361Z,32.9
2023-03-06T12:23:49.761Z,32.8
2023-03-06T12:25:21.452Z,32.7
2023-03-06T12:26:04.624Z,32.8
2023-03-06T12:27:16.874Z,32.7
2023-03-06T12:28:29.609Z,32.7
2023-03-06T12:29:41.750Z,32.7
2023-03-06T12:30:44.650Z,32.7
2023-03-06T12:31:56.803Z,32.7
2023-03-06T12:33:09.623Z,32.8
2023-03-06T12:34:11.872Z,32.8
2023-03-06T12:35:24.640Z,32.8
2023-03-06T12:36:36.995Z,32.8
2023-03-06T12:37:51.139Z,32.9
2023-03-06T12:38:53.302Z,32.9
2023-03-06T12:40:06.209Z,33.0
2023-03-06T12:41:18.484Z,33.0
2023-03-06T12:42:23.707Z,33.0
2023-03-06T12:43:36.496Z,33.1
2023-03-06T12:44:40.623Z,33.1
2023-03-06T12:45:52.780Z,33.1
2023-03-06T12:47:05.646Z,33.1
2023-03-06T12:48:07.904Z,33.1
2023-03-06T12:49:31.443Z,33.2
2023-03-06T12:50:34.388Z,33.1
2023-03-06T12:51:47.242Z,33.2
2023-03-06T12:52:49.406Z,33.2
2023-03-06T12:54:03.587Z,33.3
2023-03-06T12:55:17.063Z,33.3
2023-03-06T12:56:20.145Z,33.3
2023-03-06T12:57:32.261Z,33.3
2023-03-06T12:58:45.147Z,33.3
2023-03-06T12:59:47.402Z,33.3
2023-03-06T13:01:04.274Z,33.3
2023-03-06T13:02:06.942Z,33.2
2023-03-06T13:03:19.627Z,33.3
2023-03-06T13:04:31.718Z,33.3
2023-03-06T13:05:44.691Z,33.2
2023-03-06T13:06:50.846Z,33.2
2023-03-06T13:08:05.484Z,33.2
2023-03-06T13:09:07.714Z,33.2
2023-03-06T13:10:20.640Z,33.2
2023-03-06T13:11:22.906Z,33.1
2023-03-06T13:12:36.210Z,33.2
2023-03-06T13:13:48.293Z,33.2
2023-03-06T13:15:01.217Z,33.2
2023-03-06T13:16:03.487Z,33.1
2023-03-06T13:17:16.142Z,33.1
2023-03-06T13:18:28.192Z,33.1
2023-03-06T13:19:41.157Z,33.1
2023-03-06T13:20:43.301Z,33.0
2023-03-06T13:21:56.142Z,33.0
2023-03-06T13:23:08.192Z,33.1
2023-03-06T13:24:11.142Z,33.1
2023-03-06T13:25:23.260Z,33.1
2023-03-06T13:26:37.254Z,33.0
2023-03-06T13:27:39.841Z,33.0
2023-03-06T13:28:52.665Z,33.0
2023-03-06T13:30:04.638Z,33.0
2023-03-06T13:31:27.073Z,33.0
2023-03-06T13:32:20.085Z,32.9
2023-03-06T13:33:33.192Z,32.9
2023-03-06T13:34:45.255Z,32.9
2023-03-06T13:35:58.241Z,33.0
2023-03-06T13:37:00.572Z,33.0
2023-03-06T13:38:13.180Z,33.1
2023-03-06T13:39:25.250Z,33.0
2023-03-06T13:40:28.134Z,33.0
2023-03-06T13:41:40.305Z,33.1
2023-03-06T13:42:53.153Z,33.0
2023-03-06T13:43:55.286Z,33.1
2023-03-06T13:45:08.163Z,33.1
2023-03-06T13:46:20.245Z,33.1
2023-03-06T13:47:46.128Z,33.0
2023-03-06T13:48:45.296Z,33.1
2023-03-06T13:49:48.081Z,33.0
2023-03-06T13:51:00.746Z,32.9
2023-03-06T13:52:12.766Z,33.0
2023-03-06T13:53:15.632Z,33.0
2023-03-06T13:54:27.667Z,33.0
2023-03-06T13:55:40.669Z,32.9
2023-03-06T13:56:42.967Z,32.9
2023-03-06T13:57:55.672Z,32.9
2023-03-06T13:59:07.699Z,32.9
2023-03-06T14:00:20.637Z,32.9
2023-03-06T14:01:22.940Z,32.8
2023-03-06T14:02:37.705Z,32.8
2023-03-06T14:05:02.792Z,32.8
2023-03-06T14:06:06.785Z,32.7
2023-03-06T14:07:19.392Z,32.7
2023-03-06T14:08:21.564Z,32.6
2023-03-06T14:09:34.428Z,32.7
2023-03-06T14:10:46.358Z,32.7
2023-03-06T14:11:49.396Z,32.7
2023-03-06T14:13:01.399Z,32.7
2023-03-06T14:14:13.925Z,32.7
2023-03-06T14:15:27.418Z,32.6
2023-03-06T14:16:37.569Z,32.7
2023-03-06T14:17:39.864Z,32.7
2023-03-06T14:18:52.388Z,32.6
2023-03-06T14:20:04.364Z,32.6
2023-03-06T14:22:33.716Z,32.6
2023-03-06T14:23:27.376Z,32.7
2023-03-06T14:24:40.361Z,32.6
2023-03-06T14:25:52.360Z,32.6
2023-03-06T14:26:55.454Z,32.5
2023-03-06T14:28:14.032Z,32.6
2023-03-06T14:29:17.354Z,32.6
2023-03-06T14:30:38.990Z,32.7
2023-03-06T14:31:41.862Z,32.6
2023-03-06T14:32:43.972Z,32.7
2023-03-06T14:33:56.882Z,32.7
2023-03-06T14:35:08.920Z,32.7
2023-03-06T14:36:21.882Z,32.7
2023-03-06T14:37:24.526Z,32.7
2023-03-06T14:38:37.850Z,32.7
2023-03-06T14:39:49.902Z,32.7
2023-03-06T14:40:52.915Z,32.8
2023-03-06T14:42:05.078Z,32.8
2023-03-06T14:43:17.878Z,33.0
2023-03-06T14:44:20.016Z,33.0
2023-03-06T14:45:32.887Z,33.0
2023-03-06T14:46:44.998Z,33.0
2023-03-06T14:47:59.377Z,33.1
2023-03-06T14:49:01.654Z,33.1
2023-03-06T14:50:14.360Z,33.1
2023-03-06T14:51:26.486Z,33.1
2023-03-06T14:52:29.379Z,33.1
2023-03-06T14:53:41.367Z,33.2
2023-03-06T14:54:54.459Z,33.2
2023-03-06T14:55:56.731Z,33.2
2023-03-06T14:57:09.399Z,33.2
2023-03-06T14:58:21.493Z,33.2
2023-03-06T14:59:34.394Z,33.2
2023-03-06T15:00:37.863Z,33.2
2023-03-06T15:01:51.460Z,33.3
2023-03-06T15:03:03.704Z,33.3
2023-03-06T15:04:06.937Z,33.3
2023-03-06T15:05:18.997Z,33.4
2023-03-06T15:06:31.885Z,33.4
2023-03-06T15:07:33.985Z,33.4
2023-03-06T15:08:46.924Z,33.5
2023-03-06T15:09:58.986Z,33.6
2023-03-06T15:11:11.881Z,33.6
2023-03-06T15:12:13.979Z,33.7
2023-03-06T15:13:26.891Z,33.8
2023-03-06T15:14:39.031Z,33.8
2023-03-06T15:15:42.395Z,33.9
2023-03-06T15:16:54.611Z,33.9
2023-03-06T15:18:07.388Z,34.0
2023-03-06T15:19:19.569Z,34.0
2023-03-06T15:20:22.935Z,34.2
2023-03-06T15:21:35.077Z,34.1
2023-03-06T15:22:47.916Z,34.2
2023-03-06T15:23:50.140Z,32.9
2023-03-06T15:25:02.926Z,31.7
2023-03-06T15:26:15.098Z,30.5
2023-03-06T15:27:28.397Z,31.9
2023-03-06T15:28:30.698Z,32.6
2023-03-06T15:29:43.412Z,32.2
2023-03-06T15:30:55.555Z,31.8
2023-03-06T15:31:58.507Z,30.4
2023-03-06T15:33:10.780Z,30.7
2023-03-06T15:34:23.990Z,29.8
2023-03-06T15:35:26.337Z,29.0
2023-03-06T15:36:39.433Z,29.1
2023-03-06T15:37:51.640Z,26.6
2023-03-06T15:39:04.952Z,25.6